Time;durP1;ratioP1;P1;durP2;ratioP2;P2;SDS_P1;SDS_P2;PMS_P1;PMS_P2;Temp;Humidity;BMP_temperature;BMP_pressure;BME280_temperature;BME280_humidity;BME280_pressure;Samples;Min_cycle;Max_cycle;Signal;HPM_P1;HPM_P2
2023/11/18 00:02:24;;;;;;;;;;;;;;;14.28;43.62;99694.91;5085131;28;1976;-38
2023/11/18 00:04:50;;;;;;;;;;;;;;;14.96;44.83;99690.41;5097232;28;1378;-38
2023/11/18 00:07:15;;;;;;;;;;;;;;;14.55;44.98;99698.94;5090265;28;1221;-39
2023/11/18 00:09:45;;;;;;;;;;;;;;;14.36;44.48;99707.56;5080177;28;1070;-40
2023/11/18 00:12:11;;;;;;;;;;;;;;;14.32;44.14;99714.88;5082275;28;1182;-39
2023/11/18 00:14:36;;;;;;;;;;;;;;;15.13;45.17;99707.53;5097667;28;1078;-38
2023/11/18 00:17:02;;;;;;;;;;;;;;;14.82;45.56;99710.09;5097860;28;1065;-37
2023/11/18 00:19:28;;;;;;;;;;;;;;;14.54;45.13;99713.16;5097685;28;1129;-40
2023/11/18 00:21:53;;;;;;;;;;;;;;;14.50;44.68;99709.06;5097439;28;1902;-41
2023/11/18 00:24:19;;;;;;;;;;;;;;;14.31;44.11;99694.66;5097426;28;1078;-40
2023/11/18 00:26:44;;;;;;;;;;;;;;;14.32;43.94;99709.59;5097640;28;1161;-38
2023/11/18 00:29:10;;;;;;;;;;;;;;;14.22;43.72;99707.78;5097353;28;1078;-38
2023/11/18 00:31:36;;;;;;;;;;;;;;;14.19;43.76;99716.81;5098109;28;1065;-38
2023/11/18 00:34:02;;;;;;;;;;;;;;;15.34;44.87;99716.47;5095741;28;1023;-38
2023/11/18 00:36:28;;;;;;;;;;;;;;;14.82;45.45;99707.44;5097485;28;883;-40
2023/11/18 00:38:53;;;;;;;;;;;;;;;14.57;45.21;99701.47;5096847;28;1202;-40
2023/11/18 00:41:19;;;;;;;;;;;;;;;14.43;44.91;99707.91;5097090;28;1066;-38
2023/11/18 00:43:44;;;;;;;;;;;;;;;14.44;44.85;99706.94;5095743;28;1899;-38
2023/11/18 00:46:10;;;;;;;;;;;;;;;15.01;45.72;99709.41;5096017;28;1267;-41
2023/11/18 00:48:35;;;;;;;;;;;;;;;14.67;45.09;99699.75;5096678;28;1070;-38
2023/11/18 00:51:01;;;;;;;;;;;;;;;14.48;45.01;99694.28;5096908;28;1141;-39
2023/11/18 00:53:27;;;;;;;;;;;;;;;14.39;44.20;99695.88;5096945;28;1121;-38
2023/11/18 00:55:52;;;;;;;;;;;;;;;14.32;44.30;99691.06;5097121;28;1133;-39
2023/11/18 00:58:18;;;;;;;;;;;;;;;15.40;45.27;99682.31;5129540;27;1111;-38
2023/11/18 01:00:43;;;;;;;;;;;;;;;14.65;45.75;99687.59;5096730;28;1177;-38
2023/11/18 01:03:10;;;;;;;;;;;;;;;14.58;45.23;99679.31;5096687;28;1983;-38
2023/11/18 01:05:35;;;;;;;;;;;;;;;14.37;44.85;99677.47;5096870;28;1212;-41
2023/11/18 01:08:01;;;;;;;;;;;;;;;14.35;44.63;99671.47;5096988;28;1152;-37
2023/11/18 01:10:27;;;;;;;;;;;;;;;15.55;45.16;99671.38;5096175;28;1149;-37
2023/11/18 01:12:55;;;;;;;;;;;;;;;14.86;46.25;99663.88;5099542;28;1434;-37
2023/11/18 01:15:20;;;;;;;;;;;;;;;14.57;45.71;99659.13;5065415;28;1269;-37
2023/11/18 01:17:47;;;;;;;;;;;;;;;14.49;44.76;99675.63;5096159;28;1189;-37
2023/11/18 01:20:13;;;;;;;;;;;;;;;14.63;45.28;99666.56;5083261;28;1110;-37
2023/11/18 01:22:39;;;;;;;;;;;;;;;15.21;45.65;99664.50;5071339;28;1967;-38
2023/11/18 01:25:05;;;;;;;;;;;;;;;14.83;45.29;99661.44;5105180;28;1200;-38
2023/11/18 01:27:33;;;;;;;;;;;;;;;14.61;45.11;99657.06;5072211;28;1226;-38
2023/11/18 01:30:00;;;;;;;;;;;;;;;14.47;44.68;99655.53;5096184;28;1129;-37
2023/11/18 01:32:25;;;;;;;;;;;;;;;14.47;43.93;99659.03;5096235;28;1049;-38
2023/11/18 01:34:51;;;;;;;;;;;;;;;14.53;44.79;99663.81;5107357;28;1274;-39
2023/11/18 01:37:17;;;;;;;;;;;;;;;15.41;45.08;99648.72;5071686;28;1114;-36
2023/11/18 01:39:42;;;;;;;;;;;;;;;14.77;45.51;99636.31;5096570;28;1212;-38
2023/11/18 01:42:08;;;;;;;;;;;;;;;14.57;45.11;99637.94;5082579;28;1913;-42
2023/11/18 01:44:35;;;;;;;;;;;;;;;14.89;45.78;99623.88;5051888;28;1052;-38
2023/11/18 01:47:05;;;;;;;;;;;;;;;15.21;45.81;99618.63;5087580;28;1031;-38
2023/11/18 01:49:32;;;;;;;;;;;;;;;14.74;45.55;99618.03;5095083;28;1053;-38
2023/11/18 01:51:59;;;;;;;;;;;;;;;14.71;44.95;99607.69;5111293;28;1132;-41
2023/11/18 01:54:24;;;;;;;;;;;;;;;14.61;44.15;99612.06;5077941;28;1098;-37
2023/11/18 01:56:50;;;;;;;;;;;;;;;14.49;44.18;99606.00;5060481;28;1113;-38
2023/11/18 01:59:19;;;;;;;;;;;;;;;14.47;43.48;99605.25;5040295;28;1104;-37
2023/11/18 02:01:49;;;;;;;;;;;;;;;15.25;45.18;99596.19;5066020;28;1163;-37
2023/11/18 02:04:16;;;;;;;;;;;;;;;14.77;45.39;99586.00;5091824;28;1362;-39
2023/11/18 02:06:41;;;;;;;;;;;;;;;14.67;44.96;99591.22;5106761;28;1141;-37
2023/11/18 02:09:07;;;;;;;;;;;;;;;14.48;44.19;99591.09;5111650;28;1116;-38
2023/11/18 02:11:59;;;;;;;;;;;;;;;14.47;44.25;99590.25;5084564;28;1166;-38
2023/11/18 02:14:25;;;;;;;;;;;;;;;14.42;43.52;99597.72;5080232;28;1167;-37
2023/11/18 02:16:51;;;;;;;;;;;;;;;15.05;45.06;99594.28;5095030;28;1257;-37
2023/11/18 02:19:20;;;;;;;;;;;;;;;15.07;45.17;99599.44;5111981;28;1073;-39
2023/11/18 02:21:46;;;;;;;;;;;;;;;14.69;45.30;99594.59;5094657;28;1107;-40
2023/11/18 02:24:24;;;;;;;;;;;;;;;14.59;44.30;99604.25;5111810;28;2086;-37
2023/11/18 02:26:50;;;;;;;;;;;;;;;14.45;44.09;99606.25;5095902;28;1034;-40
2023/11/18 02:29:15;;;;;;;;;;;;;;;14.40;43.99;99618.16;5130305;27;1274;-37
2023/11/18 02:31:41;;;;;;;;;;;;;;;15.53;45.16;99623.78;5098765;28;1186;-39
2023/11/18 02:34:08;;;;;;;;;;;;;;;15.05;45.76;99644.59;5115428;27;1141;-38
2023/11/18 02:36:41;;;;;;;;;;;;;;;14.70;45.28;99645.72;5115202;28;1231;-38
2023/11/18 02:39:15;;;;;;;;;;;;;;;14.54;44.61;99651.44;5098095;28;1179;-39
2023/11/18 02:41:41;;;;;;;;;;;;;;;14.54;44.36;99660.22;5099554;28;923;-38
2023/11/18 02:44:10;;;;;;;;;;;;;;;14.97;45.25;99662.09;5098209;28;1906;-40
2023/11/18 02:46:38;;;;;;;;;;;;;;;15.02;45.44;99675.81;5099498;28;1030;-37
2023/11/18 02:49:03;;;;;;;;;;;;;;;14.63;45.21;99665.72;5099276;28;1153;-38
2023/11/18 02:51:33;;;;;;;;;;;;;;;14.55;44.54;99664.53;5098102;28;1174;-36
2023/11/18 02:53:59;;;;;;;;;;;;;;;14.47;43.93;99660.84;5099550;28;1158;-37
2023/11/18 02:56:25;;;;;;;;;;;;;;;14.45;43.74;99672.41;5099838;28;1070;-37
2023/11/18 02:58:50;;;;;;;;;;;;;;;15.10;45.01;99662.75;5098791;28;1058;-38
2023/11/18 03:01:17;;;;;;;;;;;;;;;14.92;45.15;99660.69;5097839;28;1125;-37
2023/11/18 03:03:43;;;;;;;;;;;;;;;14.64;44.94;99656.81;5099325;28;1910;-39
2023/11/18 03:06:11;;;;;;;;;;;;;;;14.47;44.71;99642.31;5099361;28;1213;-38
2023/11/18 03:08:36;;;;;;;;;;;;;;;14.37;44.15;99645.72;5097771;28;2106;-37
2023/11/18 03:11:04;;;;;;;;;;;;;;;14.35;43.59;99641.53;5098643;28;1228;-37
2023/11/18 03:13:30;;;;;;;;;;;;;;;15.05;44.89;99639.31;5099242;28;1164;-38
2023/11/18 03:15:55;;;;;;;;;;;;;;;15.02;45.32;99634.28;5099157;28;1111;-37
2023/11/18 03:18:21;;;;;;;;;;;;;;;14.56;45.28;99639.75;5099086;28;1117;-39
2023/11/18 03:20:46;;;;;;;;;;;;;;;14.47;44.33;99640.50;5098974;28;1070;-38
2023/11/18 03:23:12;;;;;;;;;;;;;;;15.33;45.37;99648.53;5098315;28;1913;-38
2023/11/18 03:25:38;;;;;;;;;;;;;;;14.84;45.49;99654.34;5099139;28;1050;-39
2023/11/18 03:28:06;;;;;;;;;;;;;;;14.64;44.79;99651.53;5099161;28;1187;-37
2023/11/18 03:30:31;;;;;;;;;;;;;;;14.53;44.53;99650.59;5098794;28;1114;-37
2023/11/18 03:32:57;;;;;;;;;;;;;;;14.47;43.77;99648.47;5098578;28;1042;-36
2023/11/18 03:35:23;;;;;;;;;;;;;;;14.31;43.75;99643.59;5098119;28;1090;-39
2023/11/18 03:37:49;;;;;;;;;;;;;;;14.33;43.41;99642.47;5096579;28;1371;-38
2023/11/18 03:40:15;;;;;;;;;;;;;;;14.27;43.17;99637.69;5098251;28;1058;-38
2023/11/18 03:42:46;;;;;;;;;;;;;;;15.14;44.88;99650.94;5096936;28;1962;-39
2023/11/18 03:45:11;;;;;;;;;;;;;;;14.93;45.42;99643.81;5097411;28;1116;-39
2023/11/18 03:47:37;;;;;;;;;;;;;;;14.60;44.99;99628.94;5097006;28;1122;-37
2023/11/18 03:50:02;;;;;;;;;;;;;;;14.46;44.63;99641.50;5098243;28;1098;-38
2023/11/18 03:52:29;;;;;;;;;;;;;;;14.45;44.55;99645.09;5091740;28;2447;-43
2023/11/18 03:54:57;;;;;;;;;;;;;;;15.36;44.99;99640.31;5091842;28;2067;-38
2023/11/18 03:57:23;;;;;;;;;;;;;;;14.80;45.60;99633.44;5098047;28;2074;-38
2023/11/18 03:59:48;;;;;;;;;;;;;;;14.55;45.12;99629.28;5100851;28;2178;-37
2023/11/18 04:02:14;;;;;;;;;;;;;;;15.60;43.40;99625.94;5104727;28;2015;-40
2023/11/18 04:04:39;;;;;;;;;;;;;;;14.52;44.40;99605.72;5096310;28;2140;-38
2023/11/18 04:07:06;;;;;;;;;;;;;;;15.39;45.48;99603.81;5097281;28;2177;-38
2023/11/18 04:09:32;;;;;;;;;;;;;;;14.91;45.46;99584.84;5085391;28;1023;-47
2023/11/18 04:11:58;;;;;;;;;;;;;;;14.72;45.06;99587.34;5082711;28;1113;-42
2023/11/18 04:14:25;;;;;;;;;;;;;;;14.60;44.79;99579.47;5096816;28;1129;-42
2023/11/18 04:16:51;;;;;;;;;;;;;;;14.52;43.97;99592.50;5093675;28;1047;-39
2023/11/18 04:19:17;;;;;;;;;;;;;;;15.33;45.39;99588.41;5093614;28;1331;-46
2023/11/18 04:21:45;;;;;;;;;;;;;;;14.92;45.61;99572.47;5092412;28;1134;-43
2023/11/18 04:24:10;;;;;;;;;;;;;;;14.59;45.22;99567.22;5092351;28;1992;-46
2023/11/18 04:26:36;;;;;;;;;;;;;;;15.75;45.43;99574.19;5091269;28;1150;-48
2023/11/18 04:29:01;;;;;;;;;;;;;;;15.03;45.76;99579.50;5094959;28;1364;-44
2023/11/18 04:31:27;;;;;;;;;;;;;;;14.76;45.24;99568.44;5081689;28;1132;-45
2023/11/18 04:33:55;;;;;;;;;;;;;;;14.68;44.63;99566.44;5092501;28;1363;-41
2023/11/18 04:36:22;;;;;;;;;;;;;;;14.60;44.13;99557.47;5095530;28;2399;-46
2023/11/18 04:38:47;;;;;;;;;;;;;;;14.49;43.67;99543.31;5097089;28;1153;-40
2023/11/18 04:41:13;;;;;;;;;;;;;;;15.41;45.47;99551.50;5129653;27;1140;-43
2023/11/18 04:43:40;;;;;;;;;;;;;;;14.98;45.39;99550.75;5096937;28;1898;-46
2023/11/18 04:46:07;;;;;;;;;;;;;;;14.69;45.29;99559.34;5096526;28;1058;-44
2023/11/18 04:48:33;;;;;;;;;;;;;;;15.25;45.96;99552.00;5096181;28;1047;-43
2023/11/18 04:50:58;;;;;;;;;;;;;;;14.81;45.69;99558.31;5096636;28;1071;-41
2023/11/18 04:53:25;;;;;;;;;;;;;;;14.62;44.90;99550.22;5089175;28;1134;-43
2023/11/18 04:55:51;;;;;;;;;;;;;;;15.20;45.89;99534.84;5085690;28;1249;-47
2023/11/18 04:58:16;;;;;;;;;;;;;;;14.65;44.18;99531.44;5090065;28;967;-40
2023/11/18 05:00:42;;;;;;;;;;;;;;;15.12;45.17;99544.28;5091877;28;1031;-37
2023/11/18 05:03:10;;;;;;;;;;;;;;;15.12;46.26;99556.66;5094646;28;1921;-45
2023/11/18 05:05:37;;;;;;;;;;;;;;;14.79;45.67;99568.19;5098485;28;1833;-42
2023/11/18 05:08:03;;;;;;;;;;;;;;;14.60;45.25;99570.72;5102072;28;943;-43
2023/11/18 05:10:29;;;;;;;;;;;;;;;14.48;44.60;99583.97;5096258;28;1165;-45
2023/11/18 05:12:57;;;;;;;;;;;;;;;14.49;44.40;99574.22;5084380;28;1047;-44
2023/11/18 05:15:26;;;;;;;;;;;;;;;14.83;45.31;99568.78;5095889;28;956;-47
2023/11/18 05:17:52;;;;;;;;;;;;;;;14.92;45.99;99559.22;5082522;28;1106;-45
2023/11/18 05:20:17;;;;;;;;;;;;;;;14.64;45.74;99546.50;5096520;28;1120;-46
2023/11/18 05:22:43;;;;;;;;;;;;;;;14.54;44.78;99554.38;5081931;28;1909;-43
2023/11/18 05:25:09;;;;;;;;;;;;;;;14.58;45.43;99557.56;5087758;28;894;-45
2023/11/18 05:27:35;;;;;;;;;;;;;;;15.03;45.88;99559.13;5081943;28;1152;-45
2023/11/18 05:30:00;;;;;;;;;;;;;;;15.24;45.54;99566.22;5070084;28;1118;-45
2023/11/18 05:32:27;;;;;;;;;;;;;;;15.70;44.36;99571.09;5066984;28;1312;-44
2023/11/18 05:34:54;;;;;;;;;;;;;;;16.63;42.75;99569.13;5089373;28;943;-41
2023/11/18 05:37:20;;;;;;;;;;;;;;;17.10;41.60;99554.25;5072108;28;2430;-45
2023/11/18 05:39:46;;;;;;;;;;;;;;;16.32;42.99;99559.50;5095497;28;1082;-40
2023/11/18 05:42:11;;;;;;;;;;;;;;;16.30;43.41;99557.97;5082249;28;1909;-40
2023/11/18 05:44:39;;;;;;;;;;;;;;;17.20;41.57;99539.06;5095483;28;1109;-45
2023/11/18 05:47:05;;;;;;;;;;;;;;;16.50;42.89;99519.81;5082099;28;1130;-46
2023/11/18 05:49:31;;;;;;;;;;;;;;;17.45;41.31;99512.78;5089570;28;934;-45
2023/11/18 05:51:57;;;;;;;;;;;;;;;17.37;41.42;99504.72;5073307;28;1134;-45
2023/11/18 05:54:22;;;;;;;;;;;;;;;16.67;42.77;99508.59;5075894;28;1267;-46
2023/11/18 05:56:48;;;;;;;;;;;;;;;16.34;43.58;99522.19;5086105;28;1440;-46
2023/11/18 05:59:13;;;;;;;;;;;;;;;17.11;42.21;99553.25;5080630;28;1151;-45
2023/11/18 06:01:39;;;;;;;;;;;;;;;16.94;42.42;99576.91;5089090;28;1030;-46
2023/11/18 06:04:08;;;;;;;;;;;;;;;16.47;43.38;99578.50;5085827;28;1919;-44
2023/11/18 06:06:33;;;;;;;;;;;;;;;16.45;43.59;99550.44;5091752;28;1839;-43
2023/11/18 06:09:04;;;;;;;;;;;;;;;17.40;41.79;99549.63;5091573;28;1031;-45
2023/11/18 06:11:31;;;;;;;;;;;;;;;16.71;43.03;99540.06;5094120;28;1205;-49
2023/11/18 06:13:57;;;;;;;;;;;;;;;16.37;43.69;99549.31;5099737;28;970;-45
2023/11/18 06:16:24;;;;;;;;;;;;;;;16.20;44.57;99560.63;5099687;28;1034;-41
2023/11/18 06:18:50;;;;;;;;;;;;;;;17.32;42.18;99566.31;5099908;28;1030;-45
2023/11/18 06:21:16;;;;;;;;;;;;;;;16.89;42.96;99568.53;5099949;28;1070;-43
2023/11/18 06:23:42;;;;;;;;;;;;;;;16.48;43.95;99574.84;5099625;28;1969;-46
2023/11/18 06:26:10;;;;;;;;;;;;;;;17.14;42.74;99560.94;5099018;28;913;-50
2023/11/18 06:28:36;;;;;;;;;;;;;;;17.10;42.63;99578.16;5099306;28;1018;-45
2023/11/18 06:31:01;;;;;;;;;;;;;;;16.61;43.79;99568.44;5099254;28;1544;-47
2023/11/18 06:33:27;;;;;;;;;;;;;;;16.47;44.13;99575.00;5099427;28;1030;-45
2023/11/18 06:35:56;;;;;;;;;;;;;;;17.18;42.32;99567.63;5099305;28;2279;-44
2023/11/18 06:38:22;;;;;;;;;;;;;;;16.64;43.71;99569.00;5099091;28;843;-44
2023/11/18 06:40:51;;;;;;;;;;;;;;;16.62;43.67;99559.47;5098850;28;1082;-49
2023/11/18 06:43:18;;;;;;;;;;;;;;;17.37;42.20;99561.41;5098866;28;1980;-44
2023/11/18 06:45:44;;;;;;;;;;;;;;;16.73;43.50;99579.75;5099172;28;1115;-43
2023/11/18 06:48:10;;;;;;;;;;;;;;;16.44;44.29;99589.41;5098902;28;1014;-43
2023/11/18 06:50:36;;;;;;;;;;;;;;;16.21;44.68;99586.19;5098455;28;1054;-46
2023/11/18 06:53:01;;;;;;;;;;;;;;;17.00;43.26;99589.59;5099351;28;1085;-45
2023/11/18 06:55:27;;;;;;;;;;;;;;;16.97;42.89;99592.53;5099301;28;1208;-43
2023/11/18 06:57:54;;;;;;;;;;;;;;;16.49;44.00;99591.63;5099434;28;1181;-46
2023/11/18 07:00:21;;;;;;;;;;;;;;;17.19;43.03;99595.03;5098162;28;1125;-45
2023/11/18 07:02:47;;;;;;;;;;;;;;;17.39;42.25;99590.50;5093340;28;1955;-45
2023/11/18 07:05:14;;;;;;;;;;;;;;;16.77;43.66;99581.97;5086326;28;1399;-48
2023/11/18 07:07:40;;;;;;;;;;;;;;;16.48;44.14;99566.88;5104738;28;2655;-45
2023/11/18 07:10:06;;;;;;;;;;;;;;;16.65;43.96;99553.88;5098752;28;1074;-43
2023/11/18 07:12:37;;;;;;;;;;;;;;;17.38;42.41;99571.03;5098453;28;1062;-44
2023/11/18 07:15:04;;;;;;;;;;;;;;;16.76;43.74;99585.63;5096696;28;1102;-48
2023/11/18 07:17:31;;;;;;;;;;;;;;;16.47;44.46;99578.50;5093462;28;1157;-46
2023/11/18 07:19:56;;;;;;;;;;;;;;;16.43;44.38;99585.06;5097873;28;1073;-48
2023/11/18 07:22:22;;;;;;;;;;;;;;;17.24;42.79;99576.84;5097755;28;1989;-44
2023/11/18 07:24:47;;;;;;;;;;;;;;;16.70;43.84;99566.75;5096272;28;1023;-50
2023/11/18 07:27:13;;;;;;;;;;;;;;;17.12;43.46;99558.41;5098420;28;1054;-47
2023/11/18 07:29:38;;;;;;;;;;;;;;;17.02;43.22;99578.81;5096364;28;976;-48
2023/11/18 07:32:10;;;;;;;;;;;;;;;16.54;44.19;99581.44;5097986;28;1045;-48
2023/11/18 07:34:35;;;;;;;;;;;;;;;16.49;44.60;99563.28;5098484;28;1054;-45
2023/11/18 07:37:01;;;;;;;;;;;;;;;17.55;42.28;99541.16;5097140;28;1800;-51
2023/11/18 07:39:43;;;;;;;;;;;;;;;16.92;43.51;99546.97;5097972;28;1121;-49
2023/11/18 07:42:12;;;;;;;;;;;;;;;16.55;44.20;99535.31;5097806;28;1909;-48
2023/11/18 07:44:38;;;;;;;;;;;;;;;17.58;42.20;99530.22;5097472;28;1034;-49
2023/11/18 07:47:05;;;;;;;;;;;;;;;17.19;42.76;99525.94;5097495;28;1113;-45
2023/11/18 07:49:31;;;;;;;;;;;;;;;16.71;44.12;99510.00;5097285;28;1133;-51
2023/11/18 07:51:57;;;;;;;;;;;;;;;17.47;42.51;99516.16;5097401;28;1101;-47
2023/11/18 07:54:23;;;;;;;;;;;;;;;17.14;43.07;99526.38;5097553;28;1137;-45
2023/11/18 07:56:49;;;;;;;;;;;;;;;16.71;43.87;99524.13;5097759;28;1196;-50
2023/11/18 07:59:18;;;;;;;;;;;;;;;16.50;44.58;99524.28;5097067;28;1069;-52
2023/11/18 08:01:44;;;;;;;;;;;;;;;16.32;45.03;99548.03;5096959;28;1158;-47
2023/11/18 08:04:10;;;;;;;;;;;;;;;17.07;43.72;99547.34;5095948;28;1969;-51
2023/11/18 08:06:35;;;;;;;;;;;;;;;17.25;42.73;99555.41;5091023;28;2327;-54
2023/11/18 08:09:02;;;;;;;;;;;;;;;16.70;44.00;99535.69;5090273;28;1040;-51
2023/11/18 08:11:29;;;;;;;;;;;;;;;17.24;43.07;99553.75;5096696;28;1304;-52
2023/11/18 08:13:54;;;;;;;;;;;;;;;17.25;42.88;99570.53;5096762;28;1122;-57
2023/11/18 08:16:22;;;;;;;;;;;;;;;16.79;43.92;99565.88;5097320;28;1031;-52
2023/11/18 08:18:47;;;;;;;;;;;;;;;16.82;44.06;99586.00;5097132;28;1023;-53
2023/11/18 08:21:13;;;;;;;;;;;;;;;16.36;44.61;99584.78;5097126;28;1078;-56
2023/11/18 08:23:39;;;;;;;;;;;;;;;17.20;43.11;99576.28;5096961;28;1976;-57
2023/11/18 08:26:05;;;;;;;;;;;;;;;17.19;42.87;99553.34;5096387;28;1065;-51
2023/11/18 08:28:31;;;;;;;;;;;;;;;16.71;44.13;99550.66;5093397;28;1293;-56
2023/11/18 08:30:56;;;;;;;;;;;;;;;16.46;44.73;99560.91;5096639;28;1117;-54
2023/11/18 08:33:25;;;;;;;;;;;;;;;16.83;43.79;99569.91;5096995;28;1007;-53
2023/11/18 08:35:50;;;;;;;;;;;;;;;17.14;42.94;99571.56;5100312;28;2280;-53
2023/11/18 08:38:16;;;;;;;;;;;;;;;16.64;43.97;99557.53;5103137;28;1096;-53
2023/11/18 08:40:42;;;;;;;;;;;;;;;16.38;44.47;99560.78;5097077;28;1051;-52
2023/11/18 08:43:08;;;;;;;;;;;;;;;17.27;43.09;99563.25;5096723;28;1905;-52
2023/11/18 08:45:34;;;;;;;;;;;;;;;17.05;43.24;99554.63;5096751;28;1224;-56
2023/11/18 08:48:07;;;;;;;;;;;;;;;16.60;44.14;99550.84;5096673;28;1038;-52
2023/11/18 08:50:33;;;;;;;;;;;;;;;16.37;44.83;99536.03;5096174;28;860;-53
2023/11/18 08:52:58;;;;;;;;;;;;;;;16.33;45.13;99537.28;5096417;28;1101;-55
2023/11/18 08:55:38;;;;;;;;;;;;;;;17.55;42.22;99527.88;5096607;28;1185;-54
2023/11/18 08:58:15;;;;;;;;;;;;;;;17.09;43.06;99532.13;5084299;28;1253;-52
2023/11/18 09:00:53;;;;;;;;;;;;;;;16.62;44.09;99530.25;5094507;28;1363;-51
2023/11/18 09:03:25;;;;;;;;;;;;;;;16.56;44.50;99529.03;5092977;28;1905;-48
2023/11/18 09:05:57;;;;;;;;;;;;;;;17.47;42.34;99537.41;5092050;28;2493;-49
2023/11/18 09:08:24;;;;;;;;;;;;;;;16.79;43.92;99554.41;5089353;28;1308;-49
2023/11/18 09:10:53;;;;;;;;;;;;;;;16.53;44.45;99569.16;5095861;28;1175;-53
2023/11/18 09:13:22;;;;;;;;;;;;;;;16.73;43.85;99577.91;5079379;28;1070;-49
2023/11/18 09:15:50;;;;;;;;;;;;;;;17.22;42.90;99562.84;5081112;28;1284;-55
2023/11/18 09:18:17;;;;;;;;;;;;;;;16.67;44.15;99551.06;5082305;28;1193;-56
2023/11/18 09:20:43;;;;;;;;;;;;;;;16.44;44.72;99564.66;5095630;28;1010;-53
2023/11/18 09:23:09;;;;;;;;;;;;;;;16.68;44.41;99564.25;5082286;28;1902;-57
2023/11/18 09:25:34;;;;;;;;;;;;;;;17.09;43.24;99555.22;5095093;28;1046;-56
2023/11/18 09:28:00;;;;;;;;;;;;;;;16.63;44.31;99569.13;5085883;28;1181;-49
2023/11/18 09:30:25;;;;;;;;;;;;;;;16.44;44.62;99554.88;5072605;28;1477;-52
2023/11/18 09:32:51;;;;;;;;;;;;;;;17.20;42.90;99530.28;5082667;28;1098;-56
2023/11/18 09:35:19;;;;;;;;;;;;;;;16.68;43.96;99535.03;5087864;28;944;-53
2023/11/18 09:37:46;;;;;;;;;;;;;;;16.48;44.66;99515.63;5084159;28;1047;-58
2023/11/18 09:40:15;;;;;;;;;;;;;;;17.31;42.62;99490.22;5075108;28;1048;-53
2023/11/18 09:42:43;;;;;;;;;;;;;;;16.73;44.03;99497.41;5104177;28;1967;-58
2023/11/18 09:45:14;;;;;;;;;;;;;;;16.47;44.56;99492.69;5067187;28;1078;-59
2023/11/18 09:47:42;;;;;;;;;;;;;;;17.42;42.58;99477.69;5092381;28;1037;-53
2023/11/18 09:50:10;;;;;;;;;;;;;;;16.93;43.27;99484.91;5081847;28;1237;-58
2023/11/18 09:52:36;;;;;;;;;;;;;;;16.69;44.19;99478.28;5092616;28;1158;-55
2023/11/18 09:55:02;;;;;;;;;;;;;;;17.47;42.38;99462.97;5067144;28;1042;-58
2023/11/18 09:57:31;;;;;;;;;;;;;;;16.87;43.46;99461.56;5092208;28;1110;-57
2023/11/18 10:00:00;;;;;;;;;;;;;;;16.57;44.19;99455.50;5084942;28;1074;-53
2023/11/18 10:02:25;;;;;;;;;;;;;;;17.34;42.69;99447.41;5087989;28;1977;-56
2023/11/18 10:04:57;;;;;;;;;;;;;;;16.93;43.56;99449.53;5102714;28;982;-53
2023/11/18 10:07:32;;;;;;;;;;;;;;;16.99;43.63;99455.09;5081741;28;2530;-58
2023/11/18 10:09:57;;;;;;;;;;;;;;;17.37;42.54;99446.25;5067205;28;1139;-55
2023/11/18 10:12:23;;;;;;;;;;;;;;;16.84;43.83;99422.03;5095039;28;1178;-58
2023/11/18 10:14:51;;;;;;;;;;;;;;;16.58;44.21;99412.88;5081206;28;1021;-55
2023/11/18 10:17:17;;;;;;;;;;;;;;;16.36;44.82;99399.00;5095087;28;1021;-55
2023/11/18 10:19:51;;;;;;;;;;;;;;;17.21;43.06;99396.41;5082110;28;1117;-56
2023/11/18 10:22:44;;;;;;;;;;;;;;;17.21;43.12;99402.56;5095219;28;1978;-56
2023/11/18 10:25:13;;;;;;;;;;;;;;;16.64;43.91;99422.94;5060523;28;1153;-52
2023/11/18 10:27:39;;;;;;;;;;;;;;;16.55;44.30;99399.91;5072030;28;1467;-55
2023/11/18 10:30:13;;;;;;;;;;;;;;;17.31;42.44;99417.63;5099253;28;972;-58
2023/11/18 10:32:39;;;;;;;;;;;;;;;16.70;44.10;99410.91;5065667;28;1175;-58
2023/11/18 10:35:05;;;;;;;;;;;;;;;16.45;44.29;99418.53;5075343;28;1430;-54
2023/11/18 10:37:31;;;;;;;;;;;;;;;17.33;42.63;99411.16;5056331;28;1803;-55
2023/11/18 10:39:57;;;;;;;;;;;;;;;17.32;42.56;99414.81;5080293;28;1054;-55
2023/11/18 10:42:26;;;;;;;;;;;;;;;16.78;43.58;99404.88;5095104;28;1978;-57
2023/11/18 10:44:57;;;;;;;;;;;;;;;16.48;44.41;99415.56;5090261;28;1133;-54
2023/11/18 10:47:25;;;;;;;;;;;;;;;17.27;42.90;99408.28;5074794;28;1035;-56
2023/11/18 10:49:51;;;;;;;;;;;;;;;17.13;42.86;99399.81;5103912;28;1116;-57
2023/11/18 10:52:17;;;;;;;;;;;;;;;16.71;43.91;99411.75;5082769;28;873;-56
2023/11/18 10:54:54;;;;;;;;;;;;;;;16.45;44.33;99397.28;5099170;28;1077;-45
2023/11/18 10:57:20;;;;;;;;;;;;;;;17.49;42.16;99372.44;5098315;28;1122;-55
2023/11/18 11:00:02;;;;;;;;;;;;;;;16.85;43.37;99395.31;5085322;28;1082;-56
2023/11/18 11:02:34;;;;;;;;;;;;;;;16.49;44.16;99382.75;5071435;28;1906;-57
2023/11/18 11:05:00;;;;;;;;;;;;;;;16.98;43.29;99402.94;5083977;28;1013;-58
2023/11/18 11:07:25;;;;;;;;;;;;;;;17.49;42.03;99405.19;5077116;28;2505;-58
2023/11/18 11:09:56;;;;;;;;;;;;;;;16.91;43.47;99419.63;5073933;28;1340;-57
2023/11/18 11:12:24;;;;;;;;;;;;;;;16.58;43.94;99428.00;5092459;28;1302;-58
2023/11/18 11:14:54;;;;;;;;;;;;;;;16.41;44.72;99427.78;5097912;28;1038;-57
2023/11/18 11:17:29;;;;;;;;;;;;;;;17.34;42.49;99438.56;5098345;28;1169;-58
2023/11/18 11:20:11;;;;;;;;;;;;;;;16.75;43.63;99435.19;5097067;28;1099;-53
2023/11/18 11:22:43;;;;;;;;;;;;;;;16.49;44.33;99435.00;5121227;27;1966;-55
2023/11/18 11:25:11;;;;;;;;;;;;;;;17.27;42.67;99441.00;5089503;28;1304;-55
2023/11/18 11:28:06;;;;;;;;;;;;;;;16.71;43.80;99447.09;5130212;27;1232;-54
2023/11/18 11:30:44;;;;;;;;;;;;;;;16.39;44.79;99433.22;5088874;28;1707;-52
2023/11/18 11:33:22;;;;;;;;;;;;;;;17.41;42.46;99428.19;5098037;28;1217;-54
2023/11/18 11:35:57;;;;;;;;;;;;;;;16.96;43.20;99418.19;5097754;28;1855;-54
2023/11/18 11:38:22;;;;;;;;;;;;;;;16.55;44.27;99410.53;5098363;28;1014;-54
2023/11/18 11:40:49;;;;;;;;;;;;;;;16.80;43.82;99394.09;5130230;27;896;-54
2023/11/18 11:43:21;;;;;;;;;;;;;;;17.21;42.69;99377.81;5096502;28;1974;-55
2023/11/18 11:45:55;;;;;;;;;;;;;;;16.67;43.76;99360.75;5097928;28;1057;-55
2023/11/18 11:48:36;;;;;;;;;;;;;;;16.53;44.16;99338.19;5097696;28;1099;-59
2023/11/18 11:51:20;;;;;;;;;;;;;;;17.35;42.37;99324.13;5097003;28;1152;-54
2023/11/18 11:54:07;;;;;;;;;;;;;;;16.68;44.00;99325.25;5097756;28;1077;-54
2023/11/18 11:56:40;;;;;;;;;;;;;;;17.13;43.13;99331.56;5085183;28;1109;-55
2023/11/18 11:59:11;;;;;;;;;;;;;;;17.06;43.09;99334.94;5097392;28;1110;-54
2023/11/18 12:01:37;;;;;;;;;;;;;;;16.65;44.08;99352.06;5096648;28;1185;-58
2023/11/18 12:04:06;;;;;;;;;;;;;;;16.40;44.33;99371.19;5096959;28;1957;-51
2023/11/18 12:06:35;;;;;;;;;;;;;;;17.05;43.35;99352.69;5097747;28;2671;-53
2023/11/18 12:09:05;;;;;;;;;;;;;;;17.23;42.48;99357.25;5130292;27;1069;-56
2023/11/18 12:11:33;;;;;;;;;;;;;;;16.72;43.66;99360.28;5095101;28;1150;-57
2023/11/18 12:14:43;;;;;;;;;;;;;;;16.66;43.95;99353.78;5088227;28;1324;-53
2023/11/18 12:17:09;;;;;;;;;;;;;;;17.42;42.14;99353.59;5084185;28;1457;-54
2023/11/18 12:19:48;;;;;;;;;;;;;;;16.77;43.66;99360.69;5085134;28;1414;-55
2023/11/18 12:22:24;;;;;;;;;;;;;;;16.74;43.62;99351.22;5085893;28;1985;-54
2023/11/18 12:24:58;;;;;;;;;;;;;;;17.43;42.28;99354.44;5096464;28;856;-56
2023/11/18 12:27:51;;;;;;;;;;;;;;;16.75;43.45;99344.06;5096365;28;1129;-56
2023/11/18 12:30:18;;;;;;;;;;;;;;;16.47;44.20;99352.03;5096958;28;1154;-58
2023/11/18 12:32:55;;;;;;;;;;;;;;;17.00;43.41;99339.88;5096623;28;1152;-57
2023/11/18 12:35:22;;;;;;;;;;;;;;;16.88;43.08;99336.59;5097341;28;1823;-57
2023/11/18 12:37:57;;;;;;;;;;;;;;;16.50;43.96;99336.63;5106383;28;993;-56
2023/11/18 12:40:46;;;;;;;;;;;;;;;17.40;42.32;99322.84;5096516;28;1174;-54
2023/11/18 12:43:17;;;;;;;;;;;;;;;16.77;43.62;99347.41;5090786;28;1905;-57
2023/11/18 12:45:50;;;;;;;;;;;;;;;16.44;44.33;99353.16;5128400;27;1122;-56
2023/11/18 12:48:16;;;;;;;;;;;;;;;16.97;43.28;99365.88;5097557;28;2394;-55
2023/11/18 12:50:43;;;;;;;;;;;;;;;17.34;42.26;99375.63;5096342;28;2067;-47
2023/11/18 12:53:09;;;;;;;;;;;;;;;16.80;43.30;99386.94;5098809;28;1881;-55
2023/11/18 12:55:35;;;;;;;;;;;;;;;16.44;44.21;99370.91;5099463;28;2388;-54
2023/11/18 12:58:00;;;;;;;;;;;;;;;16.70;43.58;99365.75;5099054;28;1852;-56
2023/11/18 13:00:34;;;;;;;;;;;;;;;17.28;42.42;99384.22;5096115;28;2164;-58
2023/11/18 13:03:00;;;;;;;;;;;;;;;16.70;43.65;99386.19;5110493;28;2049;-51